Time;durP1;ratioP1;P1;durP2;ratioP2;P2;SDS_P1;SDS_P2;PMS_P1;PMS_P2;Temp;Humidity;BMP_temperature;BMP_pressure;BME280_temperature;BME280_humidity;BME280_pressure;Samples;Min_cycle;Max_cycle;Signal;HPM_P1;HPM_P2
2021/10/03 00:02:00;;;;;;;2.13;1.40;;;;;;;8.92;69.16;98035.41;5088457;28;20075;-78
2021/10/03 00:04:30;;;;;;;2.78;0.90;;;;;;;8.87;69.29;98046.88;5086641;28;20052;-78
2021/10/03 00:06:59;;;;;;;2.25;0.68;;;;;;;8.85;69.22;98063.03;5090243;28;20055;-78
2021/10/03 00:09:26;;;;;;;2.17;0.55;;;;;;;8.83;69.59;98048.88;5086682;28;20047;-78
2021/10/03 00:11:53;;;;;;;2.28;0.98;;;;;;;8.83;69.82;98048.88;5088979;28;20044;-78
2021/10/03 00:14:23;;;;;;;4.28;1.02;;;;;;;8.82;69.77;98049.25;5087612;28;20579;-78
2021/10/03 00:16:54;;;;;;;2.35;0.70;;;;;;;8.81;69.81;98056.75;5087090;28;20044;-77
2021/10/03 00:19:22;;;;;;;6.30;1.23;;;;;;;8.82;69.75;98055.56;5088639;28;20043;-78
2021/10/03 00:21:50;;;;;;;3.90;0.63;;;;;;;8.81;69.49;98048.50;5088126;28;20036;-78
2021/10/03 00:24:17;;;;;;;2.95;0.85;;;;;;;8.77;69.71;98055.97;5087579;28;20044;-78
2021/10/03 00:26:44;;;;;;;2.50;0.82;;;;;;;8.75;70.04;98057.56;5086784;28;20503;-78
2021/10/03 00:29:11;;;;;;;2.88;0.75;;;;;;;8.74;69.89;98051.25;5087600;28;20036;-78
2021/10/03 00:31:38;;;;;;;1.65;0.50;;;;;;;8.73;69.91;98051.66;5087957;28;20063;-78
2021/10/03 00:34:05;;;;;;;2.95;0.98;;;;;;;8.73;69.80;98049.69;5089080;28;20203;-78
2021/10/03 00:36:32;;;;;;;4.32;0.93;;;;;;;8.71;70.21;98045.75;5085791;28;20424;-78
2021/10/03 00:38:58;;;;;;;4.63;0.70;;;;;;;8.68;70.16;98049.31;5086849;28;20062;-77
2021/10/03 00:41:25;;;;;;;5.53;0.70;;;;;;;8.69;70.20;98039.81;5086261;28;20106;-79
2021/10/03 00:43:53;;;;;;;2.33;0.47;;;;;;;8.67;70.07;98031.19;5087533;28;20044;-78
2021/10/03 00:46:20;;;;;;;9.27;0.90;;;;;;;8.68;70.16;98038.28;5094377;28;20052;-78
2021/10/03 00:48:47;;;;;;;1.55;0.60;;;;;;;8.61;70.43;98039.06;5087054;28;20047;-78
2021/10/03 00:51:14;;;;;;;2.90;0.70;;;;;;;8.60;70.46;98037.50;5085971;28;20054;-78
2021/10/03 00:53:41;;;;;;;1.98;0.60;;;;;;;8.59;70.73;98030.41;5087484;28;20043;-78
2021/10/03 00:56:12;;;;;;;3.03;0.85;;;;;;;8.61;70.97;98028.03;5088125;28;20055;-78
2021/10/03 00:58:39;;;;;;;1.17;0.40;;;;;;;8.64;70.83;98023.69;5086963;28;20488;-78
2021/10/03 01:01:06;;;;;;;5.57;1.30;;;;;;;8.63;70.62;98024.91;5088049;28;20682;-78
2021/10/03 01:03:35;;;;;;;2.35;0.45;;;;;;;8.64;71.05;98031.97;5087270;28;20076;-78
2021/10/03 01:06:03;;;;;;;3.47;0.70;;;;;;;8.67;71.00;98028.41;5089050;28;20047;-78
2021/10/03 01:08:30;;;;;;;1.63;0.60;;;;;;;8.65;71.21;98017.78;5087434;28;20036;-77
2021/10/03 01:10:56;;;;;;;2.15;0.90;;;;;;;8.64;71.28;98020.94;5087008;28;20044;-77
2021/10/03 01:13:24;;;;;;;4.60;1.10;;;;;;;8.65;71.24;98005.97;5085764;28;23108;-79
2021/10/03 01:15:52;;;;;;;3.67;0.90;;;;;;;8.62;71.40;98013.06;5081187;28;20050;-78
2021/10/03 01:18:20;;;;;;;5.35;1.90;;;;;;;8.62;71.18;98007.56;5082554;28;20040;-78
2021/10/03 01:20:48;;;;;;;2.88;0.73;;;;;;;8.57;71.51;98005.22;5085772;28;20418;-77
2021/10/03 01:23:15;;;;;;;2.58;0.55;;;;;;;8.60;71.57;98009.94;5086391;28;20522;-78
2021/10/03 01:25:46;;;;;;;2.60;0.90;;;;;;;8.58;71.70;98007.56;5085139;28;20506;-78
2021/10/03 01:28:14;;;;;;;4.05;0.70;;;;;;;8.61;71.70;98005.19;5085711;28;20040;-78
2021/10/03 01:30:46;;;;;;;4.88;0.77;;;;;;;8.61;71.69;97994.16;5085854;28;20067;-78
2021/10/03 01:33:13;;;;;;;2.90;0.77;;;;;;;8.63;71.79;97991.81;5087143;28;20510;-78
2021/10/03 01:35:40;;;;;;;0.93;0.60;;;;;;;8.63;72.18;97995.31;5087880;28;20044;-78
2021/10/03 01:38:07;;;;;;;5.35;1.00;;;;;;;8.67;72.31;97982.31;5086159;28;20040;-78
2021/10/03 01:40:35;;;;;;;6.28;0.65;;;;;;;8.72;72.23;97972.84;5086363;28;20079;-78
2021/10/03 01:43:02;;;;;;;7.30;0.75;;;;;;;8.75;72.30;97983.88;5084726;28;20052;-78
2021/10/03 01:45:29;;;;;;;6.28;1.58;;;;;;;8.78;72.16;97969.28;5084705;28;20098;-77
2021/10/03 01:48:07;;;;;;;5.05;0.60;;;;;;;8.79;72.72;97970.84;5085348;28;20476;-78
2021/10/03 01:50:41;;;;;;;2.13;0.85;;;;;;;8.79;72.47;97968.06;5086789;28;20040;-78
2021/10/03 01:53:09;;;;;;;4.32;0.98;;;;;;;8.81;72.40;97962.19;5084122;28;20044;-78
2021/10/03 01:55:38;;;;;;;1.25;0.40;;;;;;;8.82;72.49;97967.28;5083700;28;20036;-78
2021/10/03 01:58:06;;;;;;;7.05;0.77;;;;;;;8.85;72.59;97955.44;5086434;28;20044;-78
2021/10/03 02:00:34;;;;;;;1.95;0.55;;;;;;;8.89;72.69;97959.00;5084230;28;20032;-78
2021/10/03 02:03:04;;;;;;;3.65;0.55;;;;;;;8.92;72.85;97943.59;5063868;28;20495;-79
2021/10/03 02:05:41;;;;;;;7.40;0.43;;;;;;;8.94;73.27;97946.75;5084699;28;20055;-78
2021/10/03 02:08:09;;;;;;;2.67;0.52;;;;;;;8.99;72.66;97947.09;5084813;28;20059;-78
2021/10/03 02:10:38;;;;;;;5.45;0.68;;;;;;;8.98;72.68;97948.28;5098560;28;20036;-78
2021/10/03 02:13:07;;;;;;;5.43;0.68;;;;;;;8.97;72.67;97940.41;5087206;28;20476;-78
2021/10/03 02:15:38;;;;;;;0.93;0.40;;;;;;;8.93;72.76;97942.41;5088665;28;20039;-78
2021/10/03 02:18:06;;;;;;;4.38;0.70;;;;;;;8.91;72.72;97923.50;5084365;28;20055;-78
2021/10/03 02:20:34;;;;;;;1.95;0.70;;;;;;;8.87;72.79;97930.22;5086111;28;20040;-78
2021/10/03 02:23:06;;;;;;;4.43;0.85;;;;;;;8.85;72.82;97933.38;5084833;28;20040;-78
2021/10/03 02:25:32;;;;;;;2.17;0.95;;;;;;;8.85;72.97;97933.38;5087765;28;20058;-78
2021/10/03 02:28:02;;;;;;;2.22;0.52;;;;;;;8.85;72.85;97927.84;5085124;28;20040;-78
2021/10/03 02:30:30;;;;;;;3.08;0.65;;;;;;;8.85;73.34;97927.84;5084447;28;20040;-78
2021/10/03 02:32:57;;;;;;;4.07;0.60;;;;;;;8.83;73.08;97924.72;5084178;28;20044;-78
2021/10/03 02:35:23;;;;;;;3.03;0.70;;;;;;;8.87;72.91;97928.22;5087469;28;20044;-78
2021/10/03 02:37:50;;;;;;;3.60;0.50;;;;;;;8.89;73.51;97928.66;5085205;28;20105;-78
2021/10/03 02:40:17;;;;;;;2.58;0.47;;;;;;;8.92;73.48;97911.25;5084307;28;20397;-78
2021/10/03 02:42:44;;;;;;;3.88;0.50;;;;;;;8.97;73.52;97924.66;5085896;28;20040;-78
2021/10/03 02:45:11;;;;;;;3.88;0.50;;;;;;;9.00;73.77;97918.31;5081124;28;20056;-78
2021/10/03 02:47:39;;;;;;;5.32;1.00;;;;;;;9.04;73.87;97913.56;5085892;28;20555;-78
2021/10/03 02:50:07;;;;;;;1.60;0.35;;;;;;;9.07;73.71;97906.44;5097468;28;20499;-77
2021/10/03 02:52:34;;;;;;;3.13;0.50;;;;;;;9.08;73.71;97906.03;5084880;28;20036;-78
2021/10/03 02:55:01;;;;;;;6.53;0.70;;;;;;;9.10;73.89;97917.47;5087037;28;20044;-78
2021/10/03 02:57:27;;;;;;;2.72;0.93;;;;;;;9.09;74.30;97902.09;5087633;28;20102;-78
2021/10/03 02:59:54;;;;;;;5.55;0.43;;;;;;;9.10;74.41;97911.97;5086897;28;20032;-78
2021/10/03 03:02:21;;;;;;;5.97;1.08;;;;;;;9.07;74.65;97907.25;5085126;28;20036;-77
2021/10/03 03:04:48;;;;;;;3.85;0.57;;;;;;;9.08;74.83;97905.28;5084241;28;20044;-78
2021/10/03 03:07:14;;;;;;;6.45;0.60;;;;;;;9.04;75.28;97897.00;5084395;28;20036;-78
2021/10/03 03:09:41;;;;;;;1.52;0.70;;;;;;;9.03;75.18;97905.69;5082396;28;20040;-79
2021/10/03 03:12:09;;;;;;;5.35;1.48;;;;;;;9.01;75.81;97905.31;5086239;28;20032;-78
2021/10/03 03:14:35;;;;;;;6.78;1.40;;;;;;;9.00;76.01;97907.28;5085316;28;20113;-79
2021/10/03 03:17:17;;;;;;;6.05;0.50;;;;;;;9.00;76.65;97912.78;5084260;28;20083;-79
2021/10/03 03:19:44;;;;;;;5.38;0.70;;;;;;;9.01;76.04;97900.56;5085732;28;20040;-78
2021/10/03 03:22:12;;;;;;;6.40;0.70;;;;;;;9.01;76.50;97889.53;5085266;28;20044;-79
2021/10/03 03:24:40;;;;;;;5.50;1.08;;;;;;;8.98;76.91;97870.22;5080439;28;20037;-79
2021/10/03 03:27:08;;;;;;;5.32;0.90;;;;;;;8.92;77.37;97874.63;5085860;28;20074;-78
2021/10/03 03:29:34;;;;;;;2.83;0.80;;;;;;;8.90;77.10;97871.47;5084472;28;20131;-79
2021/10/03 03:32:02;;;;;;;7.05;0.55;;;;;;;8.89;77.75;97889.22;5082471;28;20117;-78
2021/10/03 03:34:32;;;;;;;3.72;0.50;;;;;;;8.87;78.32;97851.00;5100673;28;22048;-78
2021/10/03 03:36:59;;;;;;;9.63;1.05;;;;;;;8.85;78.06;97850.63;5084207;28;20044;-79
2021/10/03 03:39:27;;;;;;;6.82;1.77;;;;;;;8.82;78.17;97850.63;5084200;28;20055;-79
2021/10/03 03:41:54;;;;;;;5.05;0.73;;;;;;;8.78;78.22;97849.88;5085607;28;20044;-78
2021/10/03 03:44:21;;;;;;;1.58;0.43;;;;;;;8.71;78.32;97847.94;5083096;28;20110;-78
2021/10/03 03:46:48;;;;;;;4.70;0.95;;;;;;;8.68;78.80;97840.50;5088404;28;20395;-79
2021/10/03 03:49:15;;;;;;;3.00;0.52;;;;;;;8.73;78.75;97851.09;5085180;28;20411;-78
2021/10/03 03:51:41;;;;;;;2.00;0.30;;;;;;;8.76;78.45;97830.97;5088490;28;20044;-78
2021/10/03 03:54:08;;;;;;;2.80;0.60;;;;;;;8.76;78.51;97835.72;5087948;28;20044;-79
2021/10/03 03:56:35;;;;;;;1.77;0.65;;;;;;;8.74;78.54;97849.88;5086623;28;20040;-79
2021/10/03 03:59:02;;;;;;;4.75;0.43;;;;;;;8.72;78.68;97837.69;5087949;28;20047;-79
2021/10/03 04:01:28;;;;;;;1.85;0.40;;;;;;;8.70;78.78;97832.59;5088157;28;20036;-78
2021/10/03 04:03:55;;;;;;;3.63;0.63;;;;;;;8.67;78.83;97838.91;5087769;28;20044;-78
2021/10/03 04:06:22;;;;;;;3.72;0.60;;;;;;;8.64;79.29;97839.72;5088304;28;20036;-79
2021/10/03 04:08:51;;;;;;;3.63;0.50;;;;;;;8.65;79.17;97846.81;5088548;28;20051;-78
2021/10/03 04:11:19;;;;;;;7.45;0.57;;;;;;;8.66;79.28;97840.09;5085948;28;20044;-78
2021/10/03 04:13:46;;;;;;;6.57;0.63;;;;;;;8.67;79.41;97838.91;5087311;28;20044;-78
2021/10/03 04:16:12;;;;;;;3.38;0.35;;;;;;;8.69;79.48;97844.78;5085258;28;20040;-78
2021/10/03 04:18:39;;;;;;;4.00;0.80;;;;;;;8.71;79.52;97850.69;5087831;28;20032;-78
2021/10/03 04:21:06;;;;;;;2.63;0.43;;;;;;;8.73;79.61;97842.81;5086884;28;20048;-78
2021/10/03 04:23:36;;;;;;;5.07;0.70;;;;;;;8.76;79.58;97853.06;5085318;28;20125;-78
2021/10/03 04:26:03;;;;;;;2.72;0.57;;;;;;;8.80;80.02;97837.25;5088575;28;20727;-78
2021/10/03 04:28:30;;;;;;;3.60;0.50;;;;;;;8.84;79.97;97854.56;5085998;28;20048;-78
2021/10/03 04:30:57;;;;;;;3.78;0.60;;;;;;;8.88;80.06;97855.31;5086217;28;20489;-78
2021/10/03 04:33:23;;;;;;;5.38;1.80;;;;;;;8.91;79.99;97860.03;5087138;28;20055;-78
2021/10/03 04:35:50;;;;;;;2.58;0.60;;;;;;;8.92;79.90;97858.84;5086555;28;20051;-78
2021/10/03 04:38:17;;;;;;;3.25;0.73;;;;;;;8.95;79.99;97860.78;5088862;28;20040;-78
2021/10/03 04:40:45;;;;;;;2.75;1.35;;;;;;;9.00;80.19;97871.41;5088571;28;20051;-78
2021/10/03 04:43:11;;;;;;;6.70;0.60;;;;;;;9.03;80.29;97876.09;5086316;28;20040;-78
2021/10/03 04:45:41;;;;;;;8.45;2.47;;;;;;;9.05;80.44;97876.47;5087328;28;20051;-78
2021/10/03 04:48:08;;;;;;;3.45;0.80;;;;;;;9.06;80.22;97866.25;5085904;28;20531;-77
2021/10/03 04:50:35;;;;;;;2.78;0.50;;;;;;;9.06;80.17;97869.00;5085564;28;20035;-78
2021/10/03 04:53:02;;;;;;;6.43;0.70;;;;;;;9.04;80.21;97874.94;5069759;28;20040;-77
2021/10/03 04:55:29;;;;;;;3.40;0.57;;;;;;;9.01;80.13;97881.25;5088638;28;20074;-77
2021/10/03 04:57:56;;;;;;;6.88;0.70;;;;;;;9.00;80.12;97878.91;5086956;28;20047;-78
2021/10/03 05:00:22;;;;;;;2.92;0.88;;;;;;;8.98;80.54;97886.78;5086114;28;20040;-77
2021/10/03 05:02:49;;;;;;;5.40;1.98;;;;;;;8.98;80.45;97898.63;5087448;28;20036;-78
2021/10/03 05:05:16;;;;;;;3.53;0.68;;;;;;;9.00;80.36;97901.75;5096634;28;20054;-78
2021/10/03 05:07:42;;;;;;;2.95;0.40;;;;;;;9.00;80.49;97909.25;5086821;28;20498;-78
2021/10/03 05:10:09;;;;;;;3.33;0.88;;;;;;;9.00;80.52;97896.22;5084196;28;20055;-77
2021/10/03 05:12:36;;;;;;;5.63;0.77;;;;;;;9.01;80.54;97910.81;5086721;28;20040;-78
2021/10/03 05:15:03;;;;;;;6.18;0.70;;;;;;;9.00;80.42;97918.31;5085436;28;20042;-77
2021/10/03 05:17:30;;;;;;;5.22;1.85;;;;;;;9.02;80.66;97915.16;5082010;28;20040;-78
2021/10/03 05:20:00;;;;;;;3.13;0.70;;;;;;;9.01;80.42;97914.38;5078030;28;20047;-78
2021/10/03 05:22:27;;;;;;;4.47;1.17;;;;;;;9.01;80.41;97913.59;5081651;28;20468;-78
2021/10/03 05:24:53;;;;;;;5.38;0.80;;;;;;;9.01;80.52;97905.31;5079736;28;20043;-78
2021/10/03 05:27:20;;;;;;;3.67;0.73;;;;;;;8.99;80.68;97918.72;5080626;28;20036;-77
2021/10/03 05:29:47;;;;;;;5.18;0.82;;;;;;;8.96;80.73;97914.78;5077475;28;20048;-78
2021/10/03 05:32:14;;;;;;;1.98;0.65;;;;;;;8.94;80.81;97927.44;5078702;28;20048;-78
2021/10/03 05:34:41;;;;;;;3.03;0.85;;;;;;;8.92;81.05;97916.00;5078905;28;20821;-78
2021/10/03 05:37:07;;;;;;;3.42;0.82;;;;;;;8.92;81.15;97916.00;5079462;28;20067;-78
2021/10/03 05:39:34;;;;;;;4.80;0.88;;;;;;;8.93;81.24;97923.09;5085409;28;20052;-77
2021/10/03 05:42:01;;;;;;;7.60;1.08;;;;;;;8.93;81.11;97917.56;5086295;28;20044;-78
2021/10/03 05:44:28;;;;;;;6.40;0.77;;;;;;;8.92;81.13;97922.28;5068445;28;20126;-78
2021/10/03 05:46:55;;;;;;;1.10;0.50;;;;;;;8.92;80.91;97927.81;5087225;28;20040;-78
2021/10/03 05:49:21;;;;;;;4.75;0.63;;;;;;;8.91;81.03;97931.78;5084330;28;20446;-77
2021/10/03 05:51:48;;;;;;;4.03;1.08;;;;;;;8.92;81.34;97944.38;5085358;28;20046;-78
2021/10/03 05:54:15;;;;;;;5.47;0.63;;;;;;;8.94;81.69;97947.53;5087037;28;20047;-78
2021/10/03 05:56:42;;;;;;;5.47;0.93;;;;;;;8.97;81.75;97938.47;5085411;28;20036;-78
2021/10/03 05:59:12;;;;;;;3.15;0.70;;;;;;;9.00;81.72;97951.41;5083715;28;20047;-78
2021/10/03 06:01:40;;;;;;;3.15;0.85;;;;;;;9.05;81.75;97953.75;5084854;28;20036;-78
2021/10/03 06:04:08;;;;;;;5.60;1.20;;;;;;;9.07;81.74;97962.44;5086154;28;20120;-78
2021/10/03 06:06:35;;;;;;;3.78;1.17;;;;;;;9.06;81.82;97960.06;5095697;27;20055;-78
2021/10/03 06:09:02;;;;;;;5.45;1.23;;;;;;;9.05;81.76;97972.31;5084613;28;20043;-78
2021/10/03 06:11:29;;;;;;;4.22;0.60;;;;;;;9.02;81.80;97971.16;5085520;28;20055;-78
2021/10/03 06:13:57;;;;;;;4.30;0.60;;;;;;;9.02;81.63;97968.38;5083343;28;20028;-78
2021/10/03 06:16:24;;;;;;;5.47;1.40;;;;;;;9.00;82.05;97972.72;5086877;28;20042;-77
2021/10/03 06:18:51;;;;;;;2.15;0.55;;;;;;;8.98;81.88;97975.88;5085015;28;20036;-78
2021/10/03 06:21:18;;;;;;;5.38;0.90;;;;;;;8.97;82.04;97982.59;5083706;28;20048;-78
2021/10/03 06:23:45;;;;;;;4.15;0.77;;;;;;;8.98;82.02;97980.59;5084752;28;20097;-78
2021/10/03 06:26:13;;;;;;;2.55;0.50;;;;;;;8.95;82.87;97982.19;5083839;28;20040;-78
2021/10/03 06:28:40;;;;;;;1.80;0.52;;;;;;;8.94;82.58;97974.34;5083590;28;20759;-78
2021/10/03 06:31:07;;;;;;;3.67;1.35;;;;;;;8.93;82.56;97973.53;5083861;28;20036;-78
2021/10/03 06:33:37;;;;;;;2.50;0.70;;;;;;;8.96;82.53;97983.00;5084339;28;20044;-78
2021/10/03 06:36:07;;;;;;;1.83;0.40;;;;;;;8.95;82.57;97981.41;5086800;28;20614;-78
2021/10/03 06:38:34;;;;;;;1.88;0.60;;;;;;;8.96;82.56;97992.06;5084887;28;20044;-78
2021/10/03 06:41:01;;;;;;;3.05;0.68;;;;;;;8.96;83.03;97989.28;5084305;28;20048;-78
2021/10/03 06:43:29;;;;;;;5.05;0.90;;;;;;;8.99;83.14;98005.06;5082170;28;20480;-78
2021/10/03 06:45:56;;;;;;;5.22;0.73;;;;;;;9.01;83.63;98012.91;5085994;28;20047;-78
2021/10/03 06:48:29;;;;;;;;;;;;;;;9.06;85.23;98006.97;5084120;28;20118;-78
2021/10/03 06:50:56;;;;;;;6.78;0.88;;;;;;;9.13;83.77;97998.69;5085321;28;19924;-78
2021/10/03 06:53:22;;;;;;;3.40;0.70;;;;;;;9.18;83.83;98010.09;5081977;28;21027;-78
2021/10/03 06:55:49;;;;;;;5.03;1.30;;;;;;;9.23;83.49;98005.31;5066877;28;20601;-78
2021/10/03 06:58:16;;;;;;;4.03;0.88;;;;;;;9.24;83.22;98015.97;5084487;28;20044;-78
2021/10/03 07:00:42;;;;;;;5.93;0.75;;;;;;;9.25;83.14;98012.03;5082673;28;20050;-78
2021/10/03 07:03:10;;;;;;;4.72;1.08;;;;;;;9.25;83.88;98030.56;5084268;28;20047;-78
2021/10/03 07:05:36;;;;;;;4.90;0.88;;;;;;;9.32;84.18;98036.81;5082596;28;20427;-77
2021/10/03 07:08:05;;;;;;;3.47;0.60;;;;;;;9.37;84.10;98025.34;5084899;28;20040;-77
2021/10/03 07:10:32;;;;;;;5.93;0.77;;;;;;;9.45;84.07;98039.94;5083180;28;20147;-78
2021/10/03 07:12:59;;;;;;;2.25;0.85;;;;;;;9.55;84.21;98039.06;5083585;28;20118;-78
2021/10/03 07:15:26;;;;;;;7.10;1.10;;;;;;;9.62;83.94;98044.53;5080016;28;20044;-82
2021/10/03 07:17:53;;;;;;;2.45;0.90;;;;;;;9.68;83.85;98048.47;5078465;28;20502;-78
2021/10/03 07:20:20;;;;;;;3.05;1.13;;;;;;;9.72;83.90;98057.50;5083680;28;20054;-79
2021/10/03 07:22:47;;;;;;;10.15;1.10;;;;;;;9.77;83.76;98048.78;5088647;28;20050;-78
2021/10/03 07:25:14;;;;;;;7.90;1.00;;;;;;;9.77;83.79;98060.63;5088202;28;20053;-78
2021/10/03 07:27:42;;;;;;;6.35;0.77;;;;;;;9.80;83.76;98059.03;5089447;28;20772;-78
2021/10/03 07:30:08;;;;;;;5.15;1.10;;;;;;;9.85;83.88;98066.88;5089096;28;20130;-78
2021/10/03 07:32:35;;;;;;;8.75;0.90;;;;;;;9.92;84.06;98060.53;5088745;28;20036;-78
2021/10/03 07:35:02;;;;;;;4.30;1.15;;;;;;;9.98;83.80;98067.97;5086469;28;20044;-78
2021/10/03 07:37:29;;;;;;;4.25;1.30;;;;;;;10.02;83.40;98076.25;5089695;28;20044;-78
2021/10/03 07:39:57;;;;;;;5.88;0.73;;;;;;;10.03;83.29;98081.38;5089026;28;20087;-78
2021/10/03 07:42:24;;;;;;;4.43;1.67;;;;;;;10.05;83.65;98081.75;5088210;28;20043;-79
2021/10/03 07:44:51;;;;;;;9.50;1.40;;;;;;;10.07;83.57;98079.38;5088964;28;20161;-78
2021/10/03 07:47:17;;;;;;;6.55;1.23;;;;;;;10.07;83.48;98087.66;5086988;28;20072;-78
2021/10/03 07:49:44;;;;;;;6.70;1.00;;;;;;;10.09;83.31;98082.50;5086873;28;20566;-78
2021/10/03 07:52:11;;;;;;;7.65;1.30;;;;;;;10.11;83.25;98093.16;5088494;28;20058;-78
2021/10/03 07:54:38;;;;;;;5.20;1.52;;;;;;;10.13;83.40;98099.91;5070685;28;20044;-78
2021/10/03 07:57:05;;;;;;;8.45;1.60;;;;;;;10.13;83.27;98097.13;5086883;28;20537;-78
2021/10/03 07:59:33;;;;;;;10.07;1.00;;;;;;;10.15;83.21;98100.28;5088635;28;20032;-78
2021/10/03 08:02:02;;;;;;;5.00;1.00;;;;;;;10.18;83.20;98115.25;5068050;28;20666;-78
2021/10/03 08:04:29;;;;;;;8.18;1.30;;;;;;;10.20;83.06;98110.91;5089906;28;20568;-78
2021/10/03 08:06:57;;;;;;;3.70;1.17;;;;;;;10.23;82.92;98101.78;5088974;28;20535;-78
2021/10/03 08:09:24;;;;;;;6.70;1.02;;;;;;;10.26;82.93;98109.28;5086955;28;20036;-78
2021/10/03 08:11:51;;;;;;;4.90;1.27;;;;;;;10.29;82.92;98127.03;5088519;28;20384;-78
2021/10/03 08:14:17;;;;;;;6.07;1.17;;;;;;;10.32;82.77;98118.72;5069150;28;20054;-78
2021/10/03 08:16:44;;;;;;;6.30;1.27;;;;;;;10.38;82.66;98130.09;5087695;28;20075;-78
2021/10/03 08:19:11;;;;;;;3.88;1.00;;;;;;;10.42;82.52;98138.38;5088240;28;20040;-78
2021/10/03 08:21:38;;;;;;;11.20;1.67;;;;;;;10.46;82.53;98133.63;5089694;28;20044;-78
2021/10/03 08:24:07;;;;;;;6.47;1.38;;;;;;;10.49;82.37;98143.84;5085170;28;20586;-78
2021/10/03 08:26:37;;;;;;;11.75;1.40;;;;;;;10.53;82.51;98161.22;5088618;28;20064;-77
2021/10/03 08:29:07;;;;;;;7.07;1.38;;;;;;;10.56;82.43;98163.19;5085537;28;20051;-77
2021/10/03 08:31:49;;;;;;;3.92;1.35;;;;;;;10.62;82.15;98161.53;5067961;28;20424;-77
2021/10/03 08:34:17;;;;;;;8.55;1.10;;;;;;;10.66;81.94;98154.00;5082634;28;20048;-77
2021/10/03 08:36:43;;;;;;;6.22;1.63;;;;;;;10.75;82.08;98166.16;5087800;28;20032;-77
2021/10/03 08:39:10;;;;;;;5.38;1.83;;;;;;;10.86;81.88;98172.38;5082596;28;20048;-77
2021/10/03 08:41:38;;;;;;;10.65;2.10;;;;;;;11.00;81.75;98158.41;5085079;28;20036;-77
2021/10/03 08:44:05;;;;;;;7.03;1.02;;;;;;;11.18;81.39;98168.50;5087037;28;20089;-77
2021/10/03 08:46:33;;;;;;;5.30;1.10;;;;;;;11.29;80.55;98180.28;5088101;28;20090;-77
2021/10/03 08:49:01;;;;;;;7.65;1.80;;;;;;;11.30;80.50;98168.81;5088302;28;20424;-77
2021/10/03 08:51:28;;;;;;;10.98;1.27;;;;;;;11.30;80.35;98171.56;5082986;28;20040;-77
2021/10/03 08:53:56;;;;;;;5.57;2.33;;;;;;;11.33;80.17;98186.56;5087136;28;20059;-77
2021/10/03 08:56:24;;;;;;;8.02;1.80;;;;;;;11.34;80.00;98177.84;5086921;28;20123;-77
2021/10/03 08:58:51;;;;;;;11.20;1.20;;;;;;;11.35;79.64;98182.19;5085586;28;20048;-77
2021/10/03 09:01:22;;;;;;;6.85;1.60;;;;;;;11.40;79.81;98197.56;5084267;28;20032;-77
2021/10/03 09:03:51;;;;;;;10.77;1.17;;;;;;;11.46;79.26;98207.00;5085088;28;20114;-77
2021/10/03 09:06:17;;;;;;;5.55;1.60;;;;;;;11.43;78.82;98199.53;5084708;28;20040;-77
2021/10/03 09:08:47;;;;;;;6.82;1.17;;;;;;;11.46;78.87;98226.41;5086689;28;20036;-76
2021/10/03 09:11:14;;;;;;;6.85;1.20;;;;;;;11.53;78.89;98218.00;5085471;28;20040;-77
2021/10/03 09:13:44;;;;;;;11.43;1.33;;;;;;;11.55;78.34;98219.16;5086911;28;20036;-77
2021/10/03 09:16:11;;;;;;;6.40;1.48;;;;;;;11.56;78.43;98240.16;5086214;28;20093;-77
2021/10/03 09:18:46;;;;;;;3.83;1.42;;;;;;;11.67;78.48;98234.47;5084882;28;20036;-76
2021/10/03 09:21:29;;;;;;;5.05;1.38;;;;;;;11.75;77.84;98240.75;5084912;28;20040;-79
2021/10/03 09:24:04;;;;;;;8.15;0.90;;;;;;;11.80;77.44;98259.72;5085291;28;20044;-76
2021/10/03 09:26:33;;;;;;;10.02;1.20;;;;;;;11.87;77.36;98267.94;5085389;28;20090;-76
2021/10/03 09:29:22;;;;;;;8.15;1.35;;;;;;;12.02;76.70;98263.81;5086463;28;20051;-76
2021/10/03 09:32:18;;;;;;;6.43;1.42;;;;;;;12.18;76.93;98270.31;5085113;28;20036;-76
2021/10/03 09:34:47;;;;;;;6.13;1.42;;;;;;;12.32;76.83;98274.91;5081973;28;20040;-75
2021/10/03 09:37:29;;;;;;;4.15;1.13;;;;;;;12.41;76.22;98289.06;5064621;28;20044;-76
2021/10/03 09:40:06;;;;;;;7.03;2.90;;;;;;;12.41;75.13;98297.38;5084135;28;20055;-75
2021/10/03 09:42:34;;;;;;;7.85;2.22;;;;;;;12.35;75.55;98290.72;5086364;28;20028;-75
2021/10/03 09:45:10;;;;;;;3.83;1.10;;;;;;;12.38;75.23;98301.00;5084546;28;20054;-76
2021/10/03 09:47:39;;;;;;;6.65;1.40;;;;;;;12.43;75.61;98297.75;5083972;28;20636;-76
2021/10/03 09:50:08;;;;;;;8.38;2.05;;;;;;;12.60;74.92;98299.47;5083701;28;20176;-77
2021/10/03 09:52:38;;;;;;;8.07;2.05;;;;;;;12.78;74.68;98316.69;5085110;28;20050;-76
2021/10/03 09:55:09;;;;;;;6.93;1.80;;;;;;;12.89;74.45;98312.97;5084551;28;20124;-76
2021/10/03 09:57:39;;;;;;;11.32;2.00;;;;;;;12.90;73.92;98315.31;5085790;28;20082;-76
2021/10/03 10:00:07;;;;;;;4.82;1.20;;;;;;;12.87;73.93;98329.28;5086049;28;20071;-76
2021/10/03 10:02:35;;;;;;;9.48;2.35;;;;;;;12.87;74.21;98337.59;5083193;28;20430;-77
2021/10/03 10:05:02;;;;;;;4.95;1.05;;;;;;;12.95;73.83;98347.38;5085258;28;20449;-76
2021/10/03 10:07:31;;;;;;;7.68;1.02;;;;;;;12.95;73.52;98339.84;5083774;28;20051;-76
2021/10/03 10:09:57;;;;;;;7.97;1.60;;;;;;;12.99;73.32;98373.91;5084827;28;20071;-78
2021/10/03 10:12:26;;;;;;;7.68;1.20;;;;;;;12.97;72.72;98373.56;5084048;28;20365;-79
2021/10/03 10:15:00;;;;;;;3.40;0.75;;;;;;;12.95;72.11;98358.47;5085174;28;20032;-77
2021/10/03 10:17:27;;;;;;;3.70;1.80;;;;;;;12.99;72.44;98384.22;5086085;28;20036;-77
2021/10/03 10:19:57;;;;;;;9.13;1.50;;;;;;;13.01;72.30;98384.59;5084901;28;20048;-78
2021/10/03 10:22:29;;;;;;;7.68;2.42;;;;;;;13.06;71.63;98395.22;5085576;28;20505;-78
2021/10/03 10:24:58;;;;;;;7.15;1.23;;;;;;;13.18;72.00;98394.72;5082968;28;20061;-79
2021/10/03 10:27:25;;;;;;;7.85;1.33;;;;;;;13.21;71.30;98400.19;5085942;28;20135;-78
2021/10/03 10:29:57;;;;;;;5.03;1.67;;;;;;;13.19;70.73;98412.94;5085049;28;20040;-78
2021/10/03 10:32:30;;;;;;;8.43;2.60;;;;;;;13.26;70.89;98410.84;5086324;28;20040;-79
2021/10/03 10:35:09;;;;;;;6.18;1.55;;;;;;;13.58;69.83;98415.91;5086713;28;21179;-79
2021/10/03 10:37:49;;;;;;;9.15;3.67;;;;;;;14.09;68.78;98422.19;5095939;28;20951;-78
2021/10/03 10:40:22;;;;;;;10.68;1.30;;;;;;;14.49;68.99;98426.66;5085536;28;20566;-79
2021/10/03 10:43:07;;;;;;;6.60;1.35;;;;;;;14.91;65.65;98436.13;5084661;28;20040;-79
2021/10/03 10:45:36;;;;;;;8.68;1.00;;;;;;;15.27;66.31;98423.00;5083716;28;20090;-79
2021/10/03 10:48:11;;;;;;;4.25;1.20;;;;;;;15.45;64.32;98433.75;5085516;28;20048;-79
2021/10/03 10:50:43;;;;;;;5.85;1.60;;;;;;;15.39;63.42;98444.63;5084341;28;20044;-78
2021/10/03 10:53:22;;;;;;;5.82;1.02;;;;;;;15.11;62.65;98443.28;5085507;28;20040;-79
2021/10/03 10:56:05;;;;;;;7.35;1.02;;;;;;;14.87;64.14;98452.94;5085252;28;20467;-79
2021/10/03 10:58:48;;;;;;;4.10;1.25;;;;;;;14.66;65.05;98461.72;5089566;28;20051;-79
2021/10/03 11:01:16;;;;;;;3.50;1.00;;;;;;;14.54;65.68;98465.91;5055973;28;21767;-79
2021/10/03 11:03:44;;;;;;;2.88;0.77;;;;;;;14.52;65.39;98478.69;5037640;28;20832;-79
2021/10/03 11:06:14;;;;;;;3.60;2.35;;;;;;;14.36;64.37;98475.81;5090892;28;20036;-80
2021/10/03 11:08:56;;;;;;;4.47;1.10;;;;;;;14.34;64.05;98489.38;5088490;28;20130;-79
2021/10/03 11:11:24;;;;;;;6.15;1.00;;;;;;;14.28;65.08;98486.25;5086622;28;20043;-79
2021/10/03 11:13:56;;;;;;;7.28;1.00;;;;;;;14.25;64.79;98492.66;5087594;28;20123;-79
2021/10/03 11:16:23;;;;;;;5.72;1.30;;;;;;;14.25;64.69;98486.31;5088196;28;20174;-79
2021/10/03 11:18:58;;;;;;;2.90;0.73;;;;;;;14.46;64.46;98485.97;5086464;28;20043;-78
2021/10/03 11:21:26;;;;;;;10.15;1.60;;;;;;;14.56;65.11;98496.13;5088164;28;20047;-80
2021/10/03 11:23:56;;;;;;;8.70;1.45;;;;;;;14.62;64.94;98506.34;5089786;28;20491;-79
2021/10/03 11:26:26;;;;;;;3.42;1.00;;;;;;;14.76;64.74;98507.28;5088778;28;20072;-79
2021/10/03 11:28:58;;;;;;;3.40;0.70;;;;;;;14.77;63.36;98506.88;5085906;28;20044;-79
2021/10/03 11:31:40;;;;;;;4.95;0.98;;;;;;;14.79;62.69;98514.78;5089021;28;20044;-79
2021/10/03 11:34:08;;;;;;;;;;;;;;;14.81;63.45;98510.34;5088856;28;20090;-79
2021/10/03 11:36:48;;;;;;;5.85;1.30;;;;;;;14.81;63.24;98513.16;5087673;28;19923;-79
2021/10/03 11:39:15;;;;;;;7.90;1.17;;;;;;;14.76;64.32;98529.56;5088825;28;20181;-79
2021/10/03 11:41:49;;;;;;;4.82;0.70;;;;;;;14.61;62.32;98548.56;5089511;28;20051;-79
2021/10/03 11:44:23;;;;;;;4.22;1.35;;;;;;;14.55;63.09;98539.91;5088893;28;20054;-79
2021/10/03 11:47:06;;;;;;;5.28;0.70;;;;;;;14.56;62.09;98546.25;5088268;28;20036;-78